Time;durP1;ratioP1;P1;durP2;ratioP2;P2;SDS_P1;SDS_P2;PMS_P1;PMS_P2;Temp;Humidity;BMP_temperature;BMP_pressure;BME280_temperature;BME280_humidity;BME280_pressure;Samples;Min_cycle;Max_cycle;Signal;HPM_P1;HPM_P2
2022/03/06 00:01:59;;;;;;;43.43;23.43;;;;;;;0.07;73.03;102230.38;5099709;27;20370;-39
2022/03/06 00:04:26;;;;;;;40.28;22.70;;;;;;;0.04;73.34;102227.94;5099110;27;20293;-38
2022/03/06 00:07:07;;;;;;;41.33;23.30;;;;;;;0.00;73.02;102234.47;5099424;27;20483;-38
2022/03/06 00:09:33;;;;;;;40.53;22.43;;;;;;;-0.14;73.14;102214.09;5099633;28;20347;-34
2022/03/06 00:12:00;;;;;;;43.50;23.50;;;;;;;-0.06;73.24;102232.22;5081117;28;20291;-36
2022/03/06 00:14:25;;;;;;;40.03;23.47;;;;;;;-0.07;73.11;102239.38;5098970;27;20323;-35
2022/03/06 00:16:54;;;;;;;41.23;22.47;;;;;;;-0.07;73.48;102239.38;5080918;27;20289;-40
2022/03/06 00:19:21;;;;;;;41.33;24.03;;;;;;;-0.09;73.32;102243.94;5098652;27;21232;-38
2022/03/06 00:21:50;;;;;;;40.50;21.87;;;;;;;-0.09;73.46;102240.44;5080992;28;20300;-36
2022/03/06 00:24:17;;;;;;;42.43;23.47;;;;;;;-0.17;73.53;102244.47;5099798;28;20325;-39
2022/03/06 00:26:44;;;;;;;38.43;23.53;;;;;;;-0.26;73.39;102245.13;5070587;28;20815;-38
2022/03/06 00:29:10;;;;;;;39.20;22.30;;;;;;;-0.20;73.60;102257.16;5099146;28;20571;-36
2022/03/06 00:31:39;;;;;;;43.20;23.50;;;;;;;-0.23;73.62;102250.22;5098977;28;20712;-37
2022/03/06 00:34:05;;;;;;;41.07;22.87;;;;;;;-0.26;74.22;102249.59;5086690;28;21683;-36
2022/03/06 00:36:32;;;;;;;43.00;23.13;;;;;;;-0.28;73.95;102248.84;5081121;28;20905;-36
2022/03/06 00:39:01;;;;;;;41.03;23.27;;;;;;;-0.33;74.46;102253.63;5080586;28;20301;-37
2022/03/06 00:41:28;;;;;;;42.90;23.53;;;;;;;-0.36;74.14;102262.69;5070365;28;20916;-37
2022/03/06 00:43:54;;;;;;;40.17;22.63;;;;;;;-0.43;74.56;102254.25;5076563;27;20307;-37
2022/03/06 00:46:20;;;;;;;42.93;23.17;;;;;;;-0.43;74.56;102269.41;5083919;27;20927;-35
2022/03/06 00:48:46;;;;;;;43.47;22.93;;;;;;;-0.47;74.59;102268.75;5069226;27;20409;-39
2022/03/06 00:51:13;;;;;;;39.83;22.67;;;;;;;-0.58;74.68;102255.31;5103124;27;20309;-37
2022/03/06 00:53:39;;;;;;;41.30;23.13;;;;;;;-0.47;74.99;102273.22;5058367;27;20340;-38
2022/03/06 00:56:07;;;;;;;41.37;23.33;;;;;;;-0.48;74.58;102279.50;5102078;27;20293;-37
2022/03/06 00:58:33;;;;;;;39.80;23.30;;;;;;;-0.49;74.63;102275.13;5090528;27;20678;-35
2022/03/06 01:01:00;;;;;;;41.93;22.73;;;;;;;-0.52;74.77;102279.72;5084095;27;20892;-39
2022/03/06 01:03:27;;;;;;;42.43;24.33;;;;;;;-0.55;74.91;102277.25;5101140;27;20062;-36
2022/03/06 01:05:54;;;;;;;39.07;23.07;;;;;;;-0.53;74.63;102278.00;5102256;27;21740;-39
2022/03/06 01:08:21;;;;;;;41.13;24.20;;;;;;;-0.61;75.78;102280.34;5057556;27;20305;-38
2022/03/06 01:10:55;;;;;;;40.60;23.17;;;;;;;-0.60;75.67;102276.72;5091041;27;20411;-38
2022/03/06 01:13:23;;;;;;;40.10;22.90;;;;;;;-0.74;76.24;102272.31;5102307;27;20307;-36
2022/03/06 01:15:51;;;;;;;42.43;23.03;;;;;;;-0.73;76.51;102287.31;5059487;27;20118;-38
2022/03/06 01:18:21;;;;;;;40.90;23.27;;;;;;;-0.70;76.34;102283.59;5103480;27;20292;-38
2022/03/06 01:20:47;;;;;;;39.80;22.53;;;;;;;-0.71;76.30;102287.22;5078374;27;20618;-36
2022/03/06 01:23:14;;;;;;;40.90;23.20;;;;;;;-0.72;76.41;102280.19;5102122;27;20362;-35
2022/03/06 01:25:40;;;;;;;41.07;23.23;;;;;;;-0.77;76.68;102283.16;5078298;28;20293;-39
2022/03/06 01:28:07;;;;;;;41.87;23.43;;;;;;;-0.77;76.85;102287.66;5102261;27;20378;-42
2022/03/06 01:30:33;;;;;;;41.37;23.20;;;;;;;-0.86;77.26;102289.97;5101818;27;20625;-37
2022/03/06 01:33:02;;;;;;;40.47;23.07;;;;;;;-0.81;77.16;102296.78;5101773;27;20297;-35
2022/03/06 01:35:29;;;;;;;39.03;22.27;;;;;;;-0.79;77.03;102293.06;5102543;27;20703;-37
2022/03/06 01:37:55;;;;;;;42.37;23.43;;;;;;;-0.77;77.16;102290.31;5066395;27;20325;-39
2022/03/06 01:40:22;;;;;;;40.47;22.83;;;;;;;-0.80;77.25;102286.03;5059847;28;20524;-35
2022/03/06 01:42:50;;;;;;;42.33;23.40;;;;;;;-0.80;77.10;102295.81;5083674;27;20427;-36
2022/03/06 01:45:20;;;;;;;38.80;22.07;;;;;;;-0.82;77.63;102293.25;5084112;27;20293;-37
2022/03/06 01:47:48;;;;;;;39.03;22.03;;;;;;;-0.82;77.35;102295.91;5102167;27;20743;-40
2022/03/06 01:50:24;;;;;;;38.20;22.77;;;;;;;-0.83;77.25;102299.53;5089982;27;20321;-39
2022/03/06 01:52:52;;;;;;;39.80;22.13;;;;;;;-0.90;77.11;102283.13;5073490;27;20719;-34
2022/03/06 01:55:22;;;;;;;37.97;22.03;;;;;;;-0.89;77.20;102300.78;5082781;27;20358;-37
2022/03/06 01:57:48;;;;;;;40.27;22.13;;;;;;;-1.01;77.28;102282.97;5083379;27;20292;-37
2022/03/06 02:00:22;;;;;;;38.30;22.00;;;;;;;-0.95;77.14;102290.56;5072717;27;20792;-36
2022/03/06 02:02:49;;;;;;;40.00;22.97;;;;;;;-0.98;77.69;102296.09;5101949;27;21800;-40
2022/03/06 02:05:16;;;;;;;39.23;23.37;;;;;;;-1.14;77.84;102268.75;5082775;27;20309;-38
2022/03/06 02:07:46;;;;;;;41.13;23.37;;;;;;;-1.02;77.94;102295.44;5083209;27;20281;-34
2022/03/06 02:10:14;;;;;;;37.17;21.20;;;;;;;-1.04;78.14;102291.16;5065038;27;20297;-36
2022/03/06 02:12:42;;;;;;;38.57;21.43;;;;;;;-1.06;77.75;102298.38;5099810;27;20293;-35
2022/03/06 02:15:10;;;;;;;38.97;21.80;;;;;;;-1.11;78.30;102295.19;5102106;27;20779;-36
2022/03/06 02:17:38;;;;;;;36.23;21.77;;;;;;;-1.30;78.59;102275.09;5099882;27;20322;-39
2022/03/06 02:20:15;;;;;;;37.33;21.50;;;;;;;-1.17;78.63;102298.22;5102198;27;20292;-37
2022/03/06 02:22:44;;;;;;;37.87;22.50;;;;;;;-1.11;78.30;102300.50;5082305;27;20305;-37
2022/03/06 02:25:15;;;;;;;39.63;22.50;;;;;;;-1.14;78.96;102306.88;5101482;27;20345;-35
2022/03/06 02:27:43;;;;;;;39.83;22.23;;;;;;;-1.13;78.86;102307.72;5097017;27;20839;-39
2022/03/06 02:30:12;;;;;;;38.87;22.83;;;;;;;-1.20;79.19;102297.50;5082685;27;20416;-40
2022/03/06 02:32:59;;;;;;;38.17;22.20;;;;;;;-1.14;79.26;102306.88;5101029;27;20400;-36
2022/03/06 02:35:28;;;;;;;39.77;22.07;;;;;;;-1.16;79.60;102310.56;5101215;27;20273;-36
2022/03/06 02:37:55;;;;;;;40.47;23.57;;;;;;;-1.25;79.68;102304.91;5100851;27;20292;-38
2022/03/06 02:40:22;;;;;;;39.30;22.90;;;;;;;-1.24;79.97;102313.72;5100283;27;20810;-38
2022/03/06 02:42:52;;;;;;;39.60;22.43;;;;;;;-1.28;80.22;102315.75;5076187;27;20293;-36
2022/03/06 02:45:39;;;;;;;39.20;22.33;;;;;;;-1.26;80.38;102315.63;5101043;27;20323;-36
2022/03/06 02:48:05;;;;;;;39.27;22.40;;;;;;;-1.29;80.16;102314.03;5077111;28;20301;-35
2022/03/06 02:50:35;;;;;;;37.53;21.77;;;;;;;-1.30;80.25;102309.66;5100712;27;20777;-36
2022/03/06 02:53:07;;;;;;;39.43;21.77;;;;;;;-1.31;80.11;102309.75;5082918;27;20334;-35
2022/03/06 02:55:34;;;;;;;37.93;20.73;;;;;;;-1.41;80.33;102299.69;5100117;27;20347;-34
2022/03/06 02:57:59;;;;;;;40.57;22.97;;;;;;;-1.34;80.38;102316.13;5082470;27;20756;-36
2022/03/06 03:00:26;;;;;;;40.00;22.10;;;;;;;-1.39;80.30;102319.09;5100009;27;20297;-38
2022/03/06 03:02:58;;;;;;;40.47;22.93;;;;;;;-1.45;81.25;102314.13;5088710;27;20556;-39
2022/03/06 03:05:25;;;;;;;39.80;23.93;;;;;;;-1.46;81.12;102315.09;5081695;27;20444;-36
2022/03/06 03:07:53;;;;;;;38.47;22.80;;;;;;;-1.58;81.19;102303.44;5081531;27;20994;-35
2022/03/06 03:10:22;;;;;;;38.27;22.23;;;;;;;-1.53;81.29;102321.75;5099919;27;20361;-36
2022/03/06 03:12:50;;;;;;;40.70;22.90;;;;;;;-1.57;81.57;102326.38;5096877;28;20300;-39
2022/03/06 03:15:16;;;;;;;39.10;23.37;;;;;;;-1.61;81.74;102324.88;5100443;27;20575;-39
2022/03/06 03:17:44;;;;;;;42.30;23.27;;;;;;;-1.63;81.94;102324.13;5100497;27;20339;-36
2022/03/06 03:20:11;;;;;;;39.83;23.03;;;;;;;-1.75;82.35;102314.25;5080990;27;20289;-37
2022/03/06 03:22:45;;;;;;;40.23;22.67;;;;;;;-1.67;82.61;102321.75;5099376;27;20305;-36
2022/03/06 03:25:11;;;;;;;39.80;22.90;;;;;;;-1.76;82.37;102308.06;5099960;27;20374;-39
2022/03/06 03:27:39;;;;;;;41.13;23.27;;;;;;;-1.74;82.61;102315.94;5082878;27;20761;-38
2022/03/06 03:30:08;;;;;;;38.20;22.97;;;;;;;-1.76;82.45;102315.22;5099438;27;20793;-36
2022/03/06 03:32:35;;;;;;;39.03;22.43;;;;;;;-1.78;82.74;102319.75;5080580;28;20332;-38
2022/03/06 03:35:01;;;;;;;41.20;22.60;;;;;;;-1.81;82.74;102322.59;5100890;27;20282;-38
2022/03/06 03:37:28;;;;;;;39.07;22.87;;;;;;;-1.88;82.87;102319.47;5099636;27;20423;-36
2022/03/06 03:39:53;;;;;;;38.13;22.47;;;;;;;-1.84;82.72;102325.47;5099732;27;20825;-41
2022/03/06 03:42:21;;;;;;;39.23;22.60;;;;;;;-1.88;82.29;102325.66;5081782;27;20293;-38
2022/03/06 03:44:51;;;;;;;41.77;24.00;;;;;;;-1.91;82.70;102328.47;5100315;27;20526;-38
2022/03/06 03:47:22;;;;;;;39.13;22.37;;;;;;;-1.98;82.56;102311.22;5099437;27;20850;-36
2022/03/06 03:49:52;;;;;;;39.57;21.77;;;;;;;-2.00;82.63;102320.22;5089462;27;20801;-36
2022/03/06 03:52:20;;;;;;;39.63;22.13;;;;;;;-1.98;82.99;102327.16;5099723;27;20325;-37
2022/03/06 03:54:47;;;;;;;41.50;23.27;;;;;;;-1.97;83.13;102331.53;5099761;27;20296;-36
2022/03/06 03:57:13;;;;;;;39.37;22.30;;;;;;;-1.95;83.26;102331.44;5098980;27;20285;-37
2022/03/06 03:59:40;;;;;;;41.60;23.77;;;;;;;-2.02;83.14;102322.13;5063200;27;20301;-39
2022/03/06 04:02:07;;;;;;;38.50;23.07;;;;;;;-2.05;83.10;102325.81;5062052;28;20122;-37
2022/03/06 04:04:33;;;;;;;38.47;21.93;;;;;;;-2.06;83.01;102318.78;5080826;27;20311;-35
2022/03/06 04:07:00;;;;;;;38.87;23.57;;;;;;;-2.05;83.43;102342.59;5079941;27;20289;-36
2022/03/06 04:09:26;;;;;;;39.80;23.07;;;;;;;-2.12;83.51;102335.09;5079789;28;20692;-36
2022/03/06 04:11:52;;;;;;;41.07;25.07;;;;;;;-2.12;83.60;102343.06;5098528;27;20285;-35
2022/03/06 04:14:19;;;;;;;40.97;24.53;;;;;;;-2.17;84.02;102340.69;5080624;28;21568;-37
2022/03/06 04:16:45;;;;;;;39.10;24.70;;;;;;;-2.16;84.33;102355.69;5079727;27;20652;-35
2022/03/06 04:19:13;;;;;;;42.60;24.90;;;;;;;-2.20;83.94;102348.84;5080829;28;20344;-38
2022/03/06 04:21:39;;;;;;;40.33;22.60;;;;;;;-2.19;83.94;102345.22;5080941;28;20094;-36
2022/03/06 04:24:05;;;;;;;41.67;23.83;;;;;;;-2.17;84.04;102353.13;5098294;28;20308;-37
2022/03/06 04:26:32;;;;;;;38.43;22.60;;;;;;;-2.20;83.85;102354.16;5047289;28;20288;-36
2022/03/06 04:28:59;;;;;;;36.97;21.37;;;;;;;-2.25;83.71;102350.91;5099107;28;20333;-39
2022/03/06 04:31:25;;;;;;;36.90;22.40;;;;;;;-2.27;83.47;102355.44;5098763;28;20281;-37
2022/03/06 04:33:51;;;;;;;36.30;21.80;;;;;;;-2.32;83.48;102355.72;5079822;28;20639;-34
2022/03/06 04:36:20;;;;;;;39.90;22.27;;;;;;;-2.33;83.43;102363.78;5080817;28;20043;-34
2022/03/06 04:38:48;;;;;;;40.97;23.43;;;;;;;-2.50;83.69;102340.88;5070914;28;20305;-37
2022/03/06 04:41:16;;;;;;;37.83;22.57;;;;;;;-2.40;83.67;102358.81;5080591;28;20309;-36
2022/03/06 04:43:43;;;;;;;36.57;21.67;;;;;;;-2.34;83.55;102368.22;5099339;28;20305;-37
2022/03/06 04:46:11;;;;;;;37.17;22.70;;;;;;;-2.37;83.87;102373.72;5063780;28;20727;-38
2022/03/06 04:48:37;;;;;;;37.93;22.23;;;;;;;-2.40;83.99;102379.22;5099123;28;20297;-37
2022/03/06 04:51:04;;;;;;;41.10;23.23;;;;;;;-2.43;83.90;102377.59;5080320;28;20381;-35
2022/03/06 04:53:31;;;;;;;41.90;23.97;;;;;;;-2.39;83.62;102387.09;5098757;28;20289;-38
2022/03/06 04:55:57;;;;;;;38.63;22.80;;;;;;;-2.42;84.03;102391.69;5063979;28;20342;-34
2022/03/06 04:58:22;;;;;;;42.97;24.80;;;;;;;-2.46;84.57;102388.38;5097887;28;20668;-36
2022/03/06 05:00:49;;;;;;;40.23;24.10;;;;;;;-2.46;84.89;102399.00;5080414;28;20027;-36
2022/03/06 05:03:15;;;;;;;38.03;23.73;;;;;;;-2.47;84.98;102402.59;5097791;28;22038;-38
2022/03/06 05:05:41;;;;;;;41.07;26.27;;;;;;;-2.51;85.23;102409.03;5080257;28;20301;-36
2022/03/06 05:08:10;;;;;;;38.97;23.90;;;;;;;-2.49;84.78;102416.91;5098392;28;20321;-37
2022/03/06 05:10:36;;;;;;;39.43;24.20;;;;;;;-2.58;84.58;102400.56;5098462;28;20289;-33
2022/03/06 05:13:05;;;;;;;40.73;25.07;;;;;;;-2.53;84.88;102415.38;5080392;28;20523;-38
2022/03/06 05:15:30;;;;;;;40.70;24.23;;;;;;;-2.53;84.85;102416.22;5079252;28;20293;-35
2022/03/06 05:17:56;;;;;;;36.73;23.17;;;;;;;-2.55;84.86;102412.81;5096792;28;20328;-35
2022/03/06 05:20:23;;;;;;;38.50;23.80;;;;;;;-2.58;85.14;102416.47;5098002;28;21525;-39
2022/03/06 05:22:51;;;;;;;38.83;23.13;;;;;;;-2.61;84.88;102414.00;5079691;28;20789;-35
2022/03/06 05:25:20;;;;;;;37.60;23.00;;;;;;;-2.66;85.50;102400.13;5079193;28;20313;-37
2022/03/06 05:27:46;;;;;;;39.07;24.87;;;;;;;-2.62;85.79;102412.28;5073804;28;20324;-36
2022/03/06 05:30:15;;;;;;;38.87;23.53;;;;;;;-2.63;85.62;102415.03;5080870;27;20294;-39
2022/03/06 05:32:41;;;;;;;37.10;22.40;;;;;;;-2.63;85.28;102410.56;5064386;27;20281;-38
2022/03/06 05:35:10;;;;;;;39.40;23.37;;;;;;;-2.74;84.77;102397.91;5083232;27;20304;-38
2022/03/06 05:37:36;;;;;;;38.70;23.27;;;;;;;-2.63;84.84;102415.88;5082741;27;20716;-38
2022/03/06 05:40:02;;;;;;;35.53;22.03;;;;;;;-2.68;84.20;102414.44;5090059;27;20312;-36
2022/03/06 05:42:31;;;;;;;34.83;21.60;;;;;;;-2.69;84.58;102426.84;5102173;27;20293;-35
2022/03/06 05:45:00;;;;;;;37.57;25.13;;;;;;;-2.69;84.55;102428.63;5084006;27;20364;-38
2022/03/06 05:47:26;;;;;;;40.17;24.97;;;;;;;-2.70;85.28;102432.25;5101729;27;21131;-38
2022/03/06 05:49:53;;;;;;;38.30;24.63;;;;;;;-2.72;85.32;102433.19;5101308;27;20299;-37
2022/03/06 05:52:19;;;;;;;39.67;25.20;;;;;;;-2.69;84.85;102433.94;5065660;27;20485;-37
2022/03/06 05:54:47;;;;;;;35.20;23.00;;;;;;;-2.69;84.85;102432.16;5101911;27;20556;-36
2022/03/06 05:57:14;;;;;;;37.07;24.60;;;;;;;-2.72;85.17;102433.19;5066206;27;20354;-36
2022/03/06 05:59:41;;;;;;;35.13;22.07;;;;;;;-2.65;84.60;102431.06;5083014;27;20297;-36
2022/03/06 06:02:07;;;;;;;37.97;23.93;;;;;;;-2.61;84.69;102432.59;5100927;27;20296;-36
2022/03/06 06:04:33;;;;;;;33.13;22.07;;;;;;;-2.56;84.16;102443.81;5082824;27;20300;-39
2022/03/06 06:07:02;;;;;;;34.70;22.07;;;;;;;-2.59;84.15;102440.47;5101081;27;20296;-38
2022/03/06 06:09:28;;;;;;;36.47;23.07;;;;;;;-2.60;84.05;102447.56;5073841;27;20324;-36
2022/03/06 06:11:54;;;;;;;35.37;23.63;;;;;;;-2.62;83.97;102449.44;5083162;27;20346;-36
2022/03/06 06:14:20;;;;;;;37.20;23.37;;;;;;;-2.58;83.86;102453.63;5101277;27;20289;-35
2022/03/06 06:16:46;;;;;;;33.77;21.13;;;;;;;-2.57;83.54;102450.03;5100870;27;20039;-40
2022/03/06 06:19:12;;;;;;;37.83;22.60;;;;;;;-2.58;83.77;102455.44;5100726;27;20043;-36
2022/03/06 06:21:44;;;;;;;33.13;21.43;;;;;;;-2.59;83.92;102454.56;5083086;27;20289;-37
2022/03/06 06:24:14;;;;;;;35.83;23.80;;;;;;;-2.56;83.51;102467.69;5069653;28;20076;-35
2022/03/06 06:26:43;;;;;;;35.10;21.77;;;;;;;-2.51;83.59;102471.88;5080040;28;20310;-39
2022/03/06 06:29:17;;;;;;;35.13;21.37;;;;;;;-2.58;83.41;102458.94;5080860;28;20914;-39
2022/03/06 06:31:43;;;;;;;33.15;21.77;;;;;;;-2.47;83.17;102476.06;5078760;28;20808;-38
2022/03/06 06:34:08;;;;;;;34.63;20.40;;;;;;;-2.45;83.23;102472.41;5079475;28;20039;-36
2022/03/06 06:36:50;;;;;;;34.03;21.67;;;;;;;-2.42;82.83;102472.22;5080303;28;20036;-35
2022/03/06 06:39:43;;;;;;;32.47;20.67;;;;;;;-2.41;83.07;102478.38;5080873;28;20122;-36
2022/03/06 06:42:12;;;;;;;32.87;20.83;;;;;;;-2.40;82.94;102475.63;5078436;28;21236;-36
2022/03/06 06:44:39;;;;;;;33.23;21.30;;;;;;;-2.37;82.87;102490.53;5078931;28;20662;-37
2022/03/06 06:47:06;;;;;;;32.77;20.87;;;;;;;-2.33;82.91;102485.91;5080308;28;20322;-36
2022/03/06 06:49:36;;;;;;;33.23;21.33;;;;;;;-2.28;82.52;102484.69;5077967;28;20499;-38
2022/03/06 06:52:02;;;;;;;34.83;21.57;;;;;;;-2.27;82.69;102494.38;5079274;28;20290;-37
2022/03/06 06:54:30;;;;;;;33.37;21.27;;;;;;;-2.24;82.56;102488.88;5079004;28;20317;-37
2022/03/06 06:56:56;;;;;;;32.90;20.17;;;;;;;-2.13;82.47;102492.75;5079545;28;20395;-36
2022/03/06 06:59:22;;;;;;;31.83;20.73;;;;;;;-2.11;82.67;102493.50;5080516;28;20304;-36
2022/03/06 07:01:50;;;;;;;33.87;22.00;;;;;;;-2.07;81.91;102503.00;5080551;28;20441;-35
2022/03/06 07:04:17;;;;;;;33.73;21.23;;;;;;;-2.01;82.23;102501.78;5061231;28;20349;-37
2022/03/06 07:06:44;;;;;;;32.57;21.73;;;;;;;-2.06;82.15;102483.47;5079687;28;20654;-39
2022/03/06 07:09:10;;;;;;;33.73;22.17;;;;;;;-1.88;81.83;102508.09;5079632;28;20306;-36
2022/03/06 07:11:36;;;;;;;32.83;20.97;;;;;;;-1.79;81.84;102502.25;5079442;28;20788;-35
2022/03/06 07:14:05;;;;;;;32.90;21.43;;;;;;;-1.69;81.32;102507.88;5079118;28;20035;-37
2022/03/06 07:16:33;;;;;;;32.53;20.57;;;;;;;-1.59;80.56;102502.88;5078332;28;20293;-36
2022/03/06 07:19:00;;;;;;;31.83;21.27;;;;;;;-1.53;80.62;102510.50;5056843;28;20392;-37
2022/03/06 07:21:27;;;;;;;34.13;21.77;;;;;;;-1.44;80.72;102512.59;5080187;28;20715;-36
2022/03/06 07:23:56;;;;;;;31.00;20.60;;;;;;;-1.32;80.18;102516.34;5079389;28;20739;-38
2022/03/06 07:26:27;;;;;;;30.30;20.80;;;;;;;-1.23;79.83;102518.41;5077433;28;20518;-38
2022/03/06 07:28:54;;;;;;;32.73;21.70;;;;;;;-1.15;79.55;102519.78;5079997;28;20289;-40
2022/03/06 07:31:22;;;;;;;32.63;20.90;;;;;;;-0.99;79.47;102527.63;5078157;28;20325;-41
2022/03/06 07:33:52;;;;;;;29.17;19.73;;;;;;;-0.93;78.80;102520.13;5080133;28;20658;-40
2022/03/06 07:36:19;;;;;;;31.87;21.43;;;;;;;-0.91;79.37;102526.25;5079634;28;20301;-41
2022/03/06 07:38:46;;;;;;;31.17;20.40;;;;;;;-0.78;78.82;102546.75;5080092;28;20384;-40
2022/03/06 07:41:14;;;;;;;33.93;21.43;;;;;;;-0.77;79.14;102548.47;5079758;28;20286;-38
2022/03/06 07:43:43;;;;;;;29.13;18.70;;;;;;;-0.68;78.48;102547.88;5079476;28;20305;-38
2022/03/06 07:46:09;;;;;;;30.20;19.07;;;;;;;-0.57;77.59;102550.75;5080954;28;20392;-36
2022/03/06 07:48:35;;;;;;;32.17;21.60;;;;;;;-0.55;77.78;102559.47;5078354;28;20838;-38
2022/03/06 07:51:05;;;;;;;29.87;20.63;;;;;;;-0.42;77.86;102545.38;5080288;28;20293;-38
2022/03/06 07:53:34;;;;;;;28.97;19.17;;;;;;;-0.31;76.62;102556.22;5078927;28;20891;-43
2022/03/06 07:56:14;;;;;;;26.73;17.30;;;;;;;-0.10;75.87;102558.44;5079186;28;20778;-41
2022/03/06 07:58:39;;;;;;;27.90;18.90;;;;;;;0.01;75.68;102560.41;5064169;28;20301;-41
2022/03/06 08:01:05;;;;;;;29.90;18.67;;;;;;;0.09;75.28;102566.09;5082273;28;20301;-40
2022/03/06 08:03:35;;;;;;;29.20;18.57;;;;;;;0.28;76.09;102560.41;5079605;28;20031;-35
2022/03/06 08:06:04;;;;;;;29.63;20.37;;;;;;;0.38;75.49;102557.97;5072514;28;20289;-40
2022/03/06 08:08:31;;;;;;;24.80;16.27;;;;;;;0.54;74.13;102569.31;5082516;28;20290;-42
2022/03/06 08:10:58;;;;;;;26.40;18.70;;;;;;;0.54;74.59;102577.31;5081530;28;20293;-37
2022/03/06 08:13:25;;;;;;;27.93;18.80;;;;;;;0.65;74.30;102574.81;5082693;28;20371;-43
2022/03/06 08:15:54;;;;;;;27.20;18.10;;;;;;;0.69;73.38;102564.75;5082832;28;20703;-42
2022/03/06 08:18:42;;;;;;;26.77;18.80;;;;;;;0.78;73.46;102585.47;5084688;28;20277;-42
2022/03/06 08:21:11;;;;;;;27.70;18.10;;;;;;;0.89;72.47;102583.91;5052724;28;20354;-46
2022/03/06 08:23:56;;;;;;;29.33;19.27;;;;;;;0.96;72.78;102570.00;5088375;28;20324;-41
2022/03/06 08:26:27;;;;;;;28.20;19.27;;;;;;;1.17;72.99;102586.38;5109443;28;20325;-42
2022/03/06 08:28:55;;;;;;;27.00;19.30;;;;;;;1.14;72.21;102580.38;5087907;28;20375;-41
2022/03/06 08:31:26;;;;;;;26.93;18.60;;;;;;;1.12;71.65;102580.47;5087663;28;20289;-37
2022/03/06 08:34:00;;;;;;;30.87;22.63;;;;;;;1.28;71.84;102584.75;5089626;28;20281;-45
2022/03/06 08:36:28;;;;;;;26.88;19.15;;;;;;;1.34;71.38;102595.00;5087245;28;20320;-45
2022/03/06 08:38:56;;;;;;;24.83;17.67;;;;;;;1.38;70.06;102596.50;5085590;28;20706;-44
2022/03/06 08:41:26;;;;;;;26.97;18.67;;;;;;;1.48;72.17;102607.38;5085766;28;20341;-43
2022/03/06 08:44:00;;;;;;;25.97;18.03;;;;;;;1.52;71.39;102603.53;5103000;28;20328;-43
2022/03/06 08:46:27;;;;;;;;;;;;;;;1.73;71.18;102603.81;5104323;28;20292;-45
2022/03/06 08:48:53;;;;;;;26.90;18.57;;;;;;;1.44;71.33;102605.88;5084718;28;20359;-40
2022/03/06 08:51:20;;;;;;;25.87;17.83;;;;;;;1.58;72.06;102615.59;5107987;28;20281;-46
2022/03/06 08:53:46;;;;;;;27.77;19.23;;;;;;;1.72;72.68;102599.44;5092594;28;20290;-43
2022/03/06 08:56:12;;;;;;;26.73;18.80;;;;;;;1.81;71.27;102598.78;5103218;28;20297;-40
2022/03/06 08:58:38;;;;;;;25.70;18.13;;;;;;;1.87;70.83;102607.31;5085054;28;20361;-41
2022/03/06 09:01:05;;;;;;;23.50;17.77;;;;;;;1.93;70.09;102607.75;5104739;28;20305;-45
2022/03/06 09:03:34;;;;;;;25.43;18.67;;;;;;;2.11;69.80;102612.69;5089860;28;20127;-42
2022/03/06 09:06:04;;;;;;;25.23;18.20;;;;;;;2.15;69.39;102612.34;5085743;27;20043;-39
2022/03/06 09:08:33;;;;;;;25.47;18.13;;;;;;;2.09;68.84;102610.13;5092165;27;20330;-44
2022/03/06 09:11:11;;;;;;;25.40;17.90;;;;;;;2.12;69.76;102609.91;5091042;27;20241;-42
2022/03/06 09:13:41;;;;;;;25.17;18.73;;;;;;;2.03;69.44;102615.94;5091039;28;20652;-42
2022/03/06 09:16:09;;;;;;;24.83;18.33;;;;;;;1.95;69.54;102621.00;5091986;27;20293;-44
2022/03/06 09:18:34;;;;;;;25.30;18.87;;;;;;;2.21;70.41;102599.50;5102966;27;20036;-46
2022/03/06 09:21:06;;;;;;;25.07;18.43;;;;;;;2.53;69.85;102603.31;5106338;27;20387;-43
2022/03/06 09:23:36;;;;;;;25.43;18.70;;;;;;;2.54;69.88;102612.16;5109106;27;20678;-43
2022/03/06 09:29:25;;;;;;;23.33;16.90;;;;;;;2.86;68.87;102604.38;5112125;27;20050;-47
2022/03/06 09:31:56;;;;;;;23.70;17.50;;;;;;;2.77;68.61;102613.09;5094291;27;20031;-46
2022/03/06 09:34:27;;;;;;;23.53;16.53;;;;;;;3.04;66.81;102606.59;5112056;27;20024;-42
2022/03/06 09:36:54;;;;;;;24.40;17.73;;;;;;;3.01;65.88;102609.53;5090894;28;20032;-41
2022/03/06 09:39:21;;;;;;;22.63;16.23;;;;;;;3.11;66.02;102604.31;5086021;28;20032;-41
2022/03/06 09:41:49;;;;;;;22.33;16.50;;;;;;;3.11;66.22;102610.50;5085888;28;20040;-42
2022/03/06 09:44:17;;;;;;;23.10;16.17;;;;;;;3.34;67.48;102610.53;5070991;27;20043;-40
2022/03/06 09:46:55;;;;;;;22.40;16.10;;;;;;;3.26;65.55;102603.09;5086055;27;20835;-39
2022/03/06 09:49:28;;;;;;;21.43;16.10;;;;;;;3.31;66.23;102606.28;5085144;28;20059;-40
2022/03/06 09:51:57;;;;;;;23.70;16.52;;;;;;;3.53;66.39;102605.41;5083666;27;20511;-43
2022/03/06 09:54:23;;;;;;;22.37;15.67;;;;;;;3.77;64.77;102607.13;5058435;27;20497;-41
2022/03/06 09:56:54;;;;;;;20.93;15.57;;;;;;;3.83;65.45;102606.63;5085561;27;20518;-40
2022/03/06 09:59:45;;;;;;;22.47;15.73;;;;;;;3.72;64.94;102601.28;5086015;27;20032;-41
2022/03/06 10:02:20;;;;;;;21.57;14.60;;;;;;;4.17;62.76;102603.88;5091258;27;20421;-42
2022/03/06 10:04:50;;;;;;;21.07;14.23;;;;;;;4.51;62.80;102606.44;5080553;27;20359;-41
2022/03/06 10:07:22;;;;;;;20.70;15.00;;;;;;;4.70;62.64;102600.38;5103757;27;20170;-43
2022/03/06 10:09:54;;;;;;;21.27;14.53;;;;;;;4.92;63.23;102597.69;5084154;27;20515;-40
2022/03/06 10:12:28;;;;;;;21.73;14.87;;;;;;;5.23;62.04;102602.13;5079528;27;20359;-40
2022/03/06 10:15:05;;;;;;;21.80;14.50;;;;;;;5.50;61.55;102597.16;5084232;27;20075;-40
2022/03/06 10:17:34;;;;;;;19.97;13.27;;;;;;;5.31;59.42;102603.31;5083456;27;20608;-43
2022/03/06 10:20:06;;;;;;;20.83;13.23;;;;;;;5.21;59.14;102600.56;5102926;27;20038;-40
2022/03/06 10:22:36;;;;;;;18.27;12.90;;;;;;;5.34;59.29;102609.25;5083891;27;20122;-42
2022/03/06 10:25:07;;;;;;;18.50;13.30;;;;;;;5.04;59.25;102597.47;5103178;27;20134;-41
2022/03/06 10:27:57;;;;;;;18.90;13.20;;;;;;;5.44;60.38;102595.88;5102029;27;20443;-39
2022/03/06 10:30:37;;;;;;;19.43;13.30;;;;;;;5.58;60.59;102611.63;5084548;27;20039;-41
2022/03/06 10:33:07;;;;;;;16.93;12.13;;;;;;;5.39;58.08;102622.31;5061008;28;20149;-40
2022/03/06 10:35:39;;;;;;;18.07;12.40;;;;;;;5.24;59.40;102595.75;5083482;27;20081;-40
2022/03/06 10:38:26;;;;;;;19.03;12.90;;;;;;;5.23;58.41;102606.66;5060601;28;20040;-41
2022/03/06 10:40:57;;;;;;;18.57;12.93;;;;;;;5.17;58.79;102607.19;5087621;27;20075;-39
2022/03/06 10:43:28;;;;;;;18.43;12.50;;;;;;;5.16;61.36;102603.63;5062788;28;20047;-42
2022/03/06 10:46:07;;;;;;;18.67;13.43;;;;;;;5.60;60.86;102599.88;5079330;28;20070;-41
2022/03/06 10:48:35;;;;;;;22.60;17.07;;;;;;;5.89;57.85;102613.44;5098831;27;20059;-41
2022/03/06 10:51:21;;;;;;;17.80;12.20;;;;;;;6.54;56.77;102602.22;5081236;28;20043;-41
2022/03/06 10:53:53;;;;;;;23.03;15.90;;;;;;;6.23;54.60;102595.13;5079044;27;20035;-39
2022/03/06 10:56:20;;;;;;;19.13;13.53;;;;;;;6.44;53.79;102604.06;5099324;27;20040;-39
2022/03/06 10:58:47;;;;;;;20.50;16.20;;;;;;;6.29;54.04;102601.78;5079227;27;21912;-44
2022/03/06 11:01:20;;;;;;;19.60;14.60;;;;;;;6.22;54.77;102600.66;5098021;27;20043;-39
2022/03/06 11:03:50;;;;;;;29.87;26.77;;;;;;;6.46;54.09;102602.06;5078357;27;20126;-43
2022/03/06 11:06:20;;;;;;;24.63;19.57;;;;;;;6.59;52.05;102600.81;5094926;27;20039;-39
2022/03/06 11:08:47;;;;;;;18.13;13.37;;;;;;;6.50;53.74;102596.28;5077048;27;20027;-42
2022/03/06 11:11:16;;;;;;;16.83;12.50;;;;;;;6.54;53.40;102602.22;5078123;27;20471;-43
2022/03/06 11:13:50;;;;;;;19.03;12.83;;;;;;;6.35;52.69;102586.91;5081984;28;20032;-43
2022/03/06 11:16:18;;;;;;;17.93;13.00;;;;;;;6.52;53.44;102590.75;5081458;28;20414;-44
2022/03/06 11:18:53;;;;;;;17.67;13.00;;;;;;;6.86;54.38;102596.53;5080819;27;20436;-42
2022/03/06 11:21:27;;;;;;;17.33;12.60;;;;;;;7.04;51.13;102595.78;5105471;27;20443;-43
2022/03/06 11:23:58;;;;;;;16.98;12.93;;;;;;;6.60;53.54;102590.88;5081558;27;20047;-42